Impacts TAF Board
For situational awareness. Not to be used for flight planning purposes.
IDs:

KDAB - Daytona Beach Intl, FL, US

Issued at 1749 UTC 21 Sep 2021
Updated at 2020 UTC 21 Sep 2021
Potential Impact None Slight Moderate High
Time1953Z 21/21Z 21/22Z 21/23Z 22/00Z 22/01Z 22/02Z 22/03Z 22/04Z 22/05Z 22/06Z 22/07Z 22/08Z 22/09Z>>
Type OBS PRVL
  [TEMP]  
PRVL
  [TEMP]  
PRVL
  [TEMP]  
PRVL PRVL PRVL PRVL PRVL PRVL PRVL PRVL PRVL PRVL
VIS 10 >6
  [3]  
>6
  [3]  
>6
  [3]  
5 5 >6 >6 >6 >6 >6 >6 >6 >6
CIG 250 --
  [30]  
--
  [30]  
--
  [30]  
200 200 -- -- -- -- -- -- -- --
Cover BKN SCT
  [BKN]  
SCT
  [BKN]  
SCT
  [BKN]  
BKN BKN SCT SCT SCT SCT SCT SCT SCT SCT
FltCat VFR VFR
  [MVFR]  
VFR
  [MVFR]  
VFR
  [MVFR]  
MVFR MVFR VFR VFR VFR VFR VFR VFR VFR VFR
WX -- VCTS
  [TSRA]  
VCTS
  [TSRA]  
VCTS
  [TSRA]  
-SHRA -SHRA -- -- -- -- -- -- -- --
WDir 100 120
[120]
120
[120]
120
[120]
VRB VRB VRB VRB VRB VRB VRB VRB VRB VRB
WSpd 8 7
  [15]  
7
  [15]  
7
  [15]  
3 3 2 2 2 2 2 2 2 2
WGst -- --
  [25]  
--
  [25]  
--
  [25]  
-- -- -- -- -- -- -- -- -- --
Raw TAF
KDAB 211749Z 2118/2218 24006KT P6SM SCT030 SCT050
  FM212000 12007KT P6SM VCTS SCT030CB SCT120
  TEMPO 2120/2124 12015G25KT 3SM TSRA BKN030CB
  FM220000 VRB03KT 5SM -SHRA SCT035 BKN200
  FM220200 VRB02KT P6SM FEW035 SCT150
  FM221700 21006KT P6SM VCSH SCT025 SCT050 BKN250


Raw METAR
KDAB 211953Z 10008KT 10SM FEW024 SCT050 SCT090 BKN250 28/23 A3001 RMK AO2 SLP162 CB DSNT SE S-W T02830233
KDAB 211853Z 09008KT 10SM FEW033 SCT050 SCT090 BKN250 30/23 A3003 RMK AO2 SLP168 CB DSNT SE S-SW T03000233
KDAB 211753Z VRB03KT 10SM FEW035 SCT049 SCT095 BKN250 31/23 A3004 RMK AO2 SLP173 CB DSNT SE S T03060228 10317 20239 58013

METAR Board
Radar Display
Forecast Discussion
For situational awareness. Not to be used for flight planning purposes.